Time;durP1;ratioP1;P1;durP2;ratioP2;P2;SDS_P1;SDS_P2;PMS_P1;PMS_P2;Temp;Humidity;BMP_temperature;BMP_pressure;BME280_temperature;BME280_humidity;BME280_pressure;Samples;Min_cycle;Max_cycle;Signal;HPM_P1;HPM_P2
2022/10/08 00:00:10;;;;;;;3.60;3.23;;;;;;;;;;5051251;28;20197;-79
2022/10/08 00:02:37;;;;;;;4.17;2.70;;;;;;;;;;5051920;28;20727;-79
2022/10/08 00:05:05;;;;;;;2.70;2.50;;;;;;;;;;5051439;28;20791;-79
2022/10/08 00:07:32;;;;;;;3.57;3.27;;;;;;;;;;5051725;28;20707;-79
2022/10/08 00:10:00;;;;;;;3.60;3.30;;;;;;;;;;5051705;28;20206;-79
2022/10/08 00:12:27;;;;;;;4.10;2.60;;;;;;;;;;5051739;28;20662;-79
2022/10/08 00:14:54;;;;;;;3.10;2.80;;;;;;;;;;5051780;28;20624;-80
2022/10/08 00:17:20;;;;;;;3.53;3.23;;;;;;;;;;5051643;28;20193;-79
2022/10/08 00:19:47;;;;;;;4.33;2.97;;;;;;;;;;5051034;28;20198;-80
2022/10/08 00:22:14;;;;;;;4.50;3.07;;;;;;;;;;5051376;28;20230;-80
2022/10/08 00:24:41;;;;;;;6.63;2.63;;;;;;;;;;5051690;28;20206;-80
2022/10/08 00:27:11;;;;;;;3.10;2.80;;;;;;;;;;5051443;28;20225;-80
2022/10/08 00:29:38;;;;;;;2.90;2.70;;;;;;;;;;5051070;28;20672;-80
2022/10/08 00:32:05;;;;;;;3.47;3.10;;;;;;;;;;5051201;28;20692;-79
2022/10/08 00:34:32;;;;;;;3.10;2.80;;;;;;;;;;5051413;28;20205;-79
2022/10/08 00:36:59;;;;;;;3.30;3.00;;;;;;;;;;5051711;28;20572;-80
2022/10/08 00:39:26;;;;;;;2.70;2.50;;;;;;;;;;5050588;28;20205;-80
2022/10/08 00:41:54;;;;;;;3.43;3.10;;;;;;;;;;5051307;28;20232;-79
2022/10/08 00:44:53;;;;;;;5.73;3.33;;;;;;;;;;5050986;28;20224;-79
2022/10/08 00:47:30;;;;;;;3.43;3.13;;;;;;;;;;5051069;28;20213;-79
2022/10/08 00:49:59;;;;;;;4.80;3.10;;;;;;;;;;5050643;28;20200;-80
2022/10/08 00:52:27;;;;;;;3.37;2.87;;;;;;;;;;5051374;28;20628;-80
2022/10/08 00:54:54;;;;;;;3.67;3.37;;;;;;;;;;5050584;28;20205;-80
2022/10/08 00:57:22;;;;;;;4.97;3.40;;;;;;;;;;5050815;28;20198;-79
2022/10/08 00:59:48;;;;;;;3.80;3.20;;;;;;;;;;5050235;28;20263;-79
2022/10/08 01:02:18;;;;;;;3.03;2.83;;;;;;;;;;5050941;28;20731;-79
2022/10/08 01:04:45;;;;;;;3.07;2.87;;;;;;;;;;5050988;28;20228;-79
2022/10/08 01:07:18;;;;;;;6.63;3.57;;;;;;;;;;5050916;28;20201;-79
2022/10/08 01:09:51;;;;;;;3.47;3.00;;;;;;;;;;5050411;28;20255;-79
2022/10/08 01:12:27;;;;;;;3.57;3.27;;;;;;;;;;5049991;28;20214;-79
2022/10/08 01:14:56;;;;;;;4.03;3.63;;;;;;;;;;5050844;28;20205;-79
2022/10/08 01:17:34;;;;;;;3.90;2.80;;;;;;;;;;5050721;28;20229;-79
2022/10/08 01:20:30;;;;;;;5.83;3.13;;;;;;;;;;5050489;28;20202;-79
2022/10/08 01:23:09;;;;;;;4.17;3.17;;;;;;;;;;5039869;28;20225;-79
2022/10/08 01:25:41;;;;;;;5.57;3.47;;;;;;;;;;5050233;28;20236;-80
2022/10/08 01:28:13;;;;;;;4.23;3.83;;;;;;;;;;5050910;28;20604;-79
2022/10/08 01:30:44;;;;;;;6.60;3.30;;;;;;;;;;5050112;28;20232;-81
2022/10/08 01:33:13;;;;;;;9.50;3.90;;;;;;;;;;5050572;28;20198;-81
2022/10/08 01:35:44;;;;;;;4.10;3.50;;;;;;;;;;5049993;28;20210;-81
2022/10/08 01:38:14;;;;;;;3.67;3.37;;;;;;;;;;5049969;28;20212;-81
2022/10/08 01:40:42;;;;;;;4.07;3.33;;;;;;;;;;5050109;28;20274;-80
2022/10/08 01:43:12;;;;;;;4.07;3.67;;;;;;;;;;5050040;28;20653;-80
2022/10/08 01:45:42;;;;;;;3.53;3.20;;;;;;;;;;5049941;28;20209;-81
2022/10/08 01:48:13;;;;;;;4.83;3.03;;;;;;;;;;5050424;28;20275;-80
2022/10/08 01:50:44;;;;;;;3.53;3.33;;;;;;;;;;5050046;28;20208;-81
2022/10/08 01:53:13;;;;;;;3.43;3.13;;;;;;;;;;5050056;28;20211;-81
2022/10/08 01:55:41;;;;;;;3.37;3.17;;;;;;;;;;5049489;28;20205;-81
2022/10/08 01:58:14;;;;;;;4.27;3.50;;;;;;;;;;5050118;28;20205;-81
2022/10/08 02:00:41;;;;;;;7.13;3.13;;;;;;;;;;5049816;28;20681;-83
2022/10/08 02:03:10;;;;;;;3.50;3.20;;;;;;;;;;5050305;28;20228;-80
2022/10/08 02:05:40;;;;;;;3.53;3.23;;;;;;;;;;5036668;28;20205;-81
2022/10/08 02:08:06;;;;;;;4.03;3.53;;;;;;;;;;5050007;28;20216;-80
2022/10/08 02:10:33;;;;;;;3.97;3.67;;;;;;;;;;5049661;28;20205;-81
2022/10/08 02:13:00;;;;;;;5.03;4.10;;;;;;;;;;5050163;28;20209;-80
2022/10/08 02:15:39;;;;;;;4.67;3.07;;;;;;;;;;5049857;28;20200;-80
2022/10/08 02:18:13;;;;;;;3.67;3.37;;;;;;;;;;5050313;28;20201;-81
2022/10/08 02:20:43;;;;;;;4.30;3.20;;;;;;;;;;5049587;28;20673;-80
2022/10/08 02:23:22;;;;;;;3.53;3.23;;;;;;;;;;5052464;28;20232;-80
2022/10/08 02:25:51;;;;;;;3.20;3.00;;;;;;;;;;5053574;28;20648;-80
2022/10/08 02:28:21;;;;;;;4.07;3.20;;;;;;;;;;5054043;28;20232;-80
2022/10/08 02:30:53;;;;;;;4.10;3.43;;;;;;;;;;5053481;28;20566;-80
2022/10/08 02:33:25;;;;;;;4.90;3.87;;;;;;;;;;5053302;28;20207;-82
2022/10/08 02:35:54;;;;;;;4.57;3.50;;;;;;;;;;5053293;28;20205;-80
2022/10/08 02:38:23;;;;;;;6.23;4.20;;;;;;;;;;5053732;28;20202;-80
2022/10/08 02:40:52;;;;;;;3.60;3.30;;;;;;;;;;5053033;28;20206;-80
2022/10/08 02:43:22;;;;;;;4.20;3.80;;;;;;;;;;5053451;28;20732;-81
2022/10/08 02:45:53;;;;;;;3.83;3.53;;;;;;;;;;5053029;28;20206;-80
2022/10/08 02:48:25;;;;;;;3.80;3.50;;;;;;;;;;5053404;28;20198;-82
2022/10/08 02:50:53;;;;;;;3.33;3.03;;;;;;;;;;5052987;28;20209;-80
2022/10/08 02:53:21;;;;;;;12.43;3.73;;;;;;;;;;5053060;28;20252;-80
2022/10/08 02:55:53;;;;;;;4.13;3.33;;;;;;;;;;5053097;28;20205;-80
2022/10/08 02:58:20;;;;;;;4.30;3.93;;;;;;;;;;5052677;28;20207;-80
2022/10/08 03:00:51;;;;;;;5.33;3.73;;;;;;;;;;5053190;28;20235;-79
2022/10/08 03:03:23;;;;;;;4.03;3.30;;;;;;;;;;5053301;28;20229;-79
2022/10/08 03:05:51;;;;;;;3.83;3.53;;;;;;;;;;5053061;28;20198;-79
2022/10/08 03:08:19;;;;;;;3.73;3.37;;;;;;;;;;5053006;28;20205;-79
2022/10/08 03:10:45;;;;;;;3.80;3.47;;;;;;;;;;5052470;28;20205;-80
2022/10/08 03:13:12;;;;;;;4.50;4.00;;;;;;;;;;5053099;28;20216;-82
2022/10/08 03:15:40;;;;;;;4.33;3.93;;;;;;;;;;5052897;28;20201;-83
2022/10/08 03:18:12;;;;;;;4.13;3.73;;;;;;;;;;5052929;28;20558;-80
2022/10/08 03:20:43;;;;;;;3.87;3.57;;;;;;;;;;5052436;28;20202;-79
2022/10/08 03:23:10;;;;;;;6.10;3.57;;;;;;;;;;5052769;28;20233;-80
2022/10/08 03:25:37;;;;;;;4.97;3.40;;;;;;;;;;5052269;28;20214;-80
2022/10/08 03:28:03;;;;;;;4.00;3.63;;;;;;;;;;5053078;28;20229;-80
2022/10/08 03:30:30;;;;;;;3.77;3.47;;;;;;;;;;5052236;28;20634;-79
2022/10/08 03:32:57;;;;;;;4.07;3.67;;;;;;;;;;5051876;28;20249;-80
2022/10/08 03:35:25;;;;;;;4.23;3.73;;;;;;;;;;5051035;28;20247;-80
2022/10/08 03:37:52;;;;;;;3.30;3.00;;;;;;;;;;5051701;28;20781;-81
2022/10/08 03:40:19;;;;;;;4.30;3.90;;;;;;;;;;5052027;28;20202;-81
2022/10/08 03:42:45;;;;;;;4.47;3.90;;;;;;;;;;5049511;28;20221;-81
2022/10/08 03:45:12;;;;;;;4.03;3.70;;;;;;;;;;5051835;28;20199;-81
2022/10/08 03:47:39;;;;;;;5.87;3.53;;;;;;;;;;5052042;28;20209;-81
2022/10/08 03:50:06;;;;;;;4.33;3.93;;;;;;;;;;5052281;28;20193;-80
2022/10/08 03:52:35;;;;;;;4.47;3.47;;;;;;;;;;5051999;28;20208;-80
2022/10/08 03:55:01;;;;;;;3.60;3.30;;;;;;;;;;5052013;28;20202;-80
2022/10/08 03:57:28;;;;;;;5.87;3.83;;;;;;;;;;5052101;28;20684;-80
2022/10/08 03:59:55;;;;;;;5.07;4.67;;;;;;;;;;5052201;28;20210;-81
2022/10/08 04:02:21;;;;;;;3.40;3.10;;;;;;;;;;5038150;28;20201;-81
2022/10/08 04:04:48;;;;;;;6.83;4.33;;;;;;;;;;5051548;28;20205;-80
2022/10/08 04:07:15;;;;;;;4.63;3.77;;;;;;;;;;5051754;28;20198;-80
2022/10/08 04:09:43;;;;;;;4.13;3.70;;;;;;;;;;5052093;28;20213;-80
2022/10/08 04:12:10;;;;;;;3.80;3.50;;;;;;;;;;5051980;28;20216;-80
2022/10/08 04:14:37;;;;;;;5.50;3.33;;;;;;;;;;5051594;28;20202;-80
2022/10/08 04:17:03;;;;;;;4.20;3.67;;;;;;;;;;5051672;28;20213;-80
2022/10/08 04:19:30;;;;;;;3.93;3.50;;;;;;;;;;5051460;28;20417;-80
2022/10/08 04:21:57;;;;;;;4.07;3.47;;;;;;;;;;5051825;28;20209;-80
2022/10/08 04:24:24;;;;;;;5.60;3.73;;;;;;;;;;5046986;28;20225;-80
2022/10/08 04:26:52;;;;;;;4.50;4.10;;;;;;;;;;5051197;28;20198;-80
2022/10/08 04:29:18;;;;;;;8.33;5.10;;;;;;;;;;5050852;28;20209;-80
2022/10/08 04:31:45;;;;;;;8.60;4.83;;;;;;;;;;5051328;28;20205;-80
2022/10/08 04:34:12;;;;;;;4.40;4.00;;;;;;;;;;5050703;28;20209;-80
2022/10/08 04:36:39;;;;;;;4.13;3.73;;;;;;;;;;5050938;28;20201;-80
2022/10/08 04:39:05;;;;;;;5.77;4.13;;;;;;;;;;5049702;28;20220;-80
2022/10/08 04:41:32;;;;;;;6.13;4.43;;;;;;;;;;5051413;28;20216;-80
2022/10/08 04:44:00;;;;;;;4.03;3.73;;;;;;;;;;5050841;28;20595;-80
2022/10/08 04:46:27;;;;;;;9.30;4.97;;;;;;;;;;5050586;28;20294;-80
2022/10/08 04:48:55;;;;;;;4.27;3.87;;;;;;;;;;5050569;28;20201;-80
2022/10/08 04:51:23;;;;;;;4.73;3.77;;;;;;;;;;5051294;28;20202;-79
2022/10/08 04:53:50;;;;;;;3.83;3.47;;;;;;;;;;5051321;28;20642;-80
2022/10/08 04:56:19;;;;;;;6.17;3.20;;;;;;;;;;5051067;28;20210;-80
2022/10/08 04:58:46;;;;;;;5.13;3.57;;;;;;;;;;5050742;28;20625;-80
2022/10/08 05:01:16;;;;;;;6.77;4.00;;;;;;;;;;5050759;28;20202;-80
2022/10/08 05:03:45;;;;;;;5.77;4.10;;;;;;;;;;5050984;28;20221;-79
2022/10/08 05:06:13;;;;;;;5.17;4.37;;;;;;;;;;5050921;28;20206;-80
2022/10/08 05:08:40;;;;;;;4.33;3.93;;;;;;;;;;5050635;28;20718;-80
2022/10/08 05:11:07;;;;;;;4.63;4.23;;;;;;;;;;5050698;28;20214;-80
2022/10/08 05:13:34;;;;;;;4.00;3.60;;;;;;;;;;5050821;28;20259;-79
2022/10/08 05:16:04;;;;;;;7.47;5.13;;;;;;;;;;5047813;28;20208;-79
2022/10/08 05:18:33;;;;;;;4.93;4.53;;;;;;;;;;5050023;28;20292;-79
2022/10/08 05:21:03;;;;;;;7.90;4.63;;;;;;;;;;5049954;28;20202;-80
2022/10/08 05:23:30;;;;;;;4.37;3.77;;;;;;;;;;5050203;28;20675;-79
2022/10/08 05:25:56;;;;;;;5.67;4.10;;;;;;;;;;5032194;28;20638;-77
2022/10/08 05:28:23;;;;;;;6.60;3.83;;;;;;;;;;5031785;28;20226;-77
2022/10/08 05:30:50;;;;;;;3.87;3.57;;;;;;;;;;5029817;28;20210;-76
2022/10/08 05:33:17;;;;;;;5.63;3.50;;;;;;;;;;5030201;28;20202;-77
2022/10/08 05:35:45;;;;;;;3.70;3.40;;;;;;;;;;5030021;28;20198;-77
2022/10/08 05:38:11;;;;;;;4.90;3.70;;;;;;;;;;5029835;28;20199;-77
2022/10/08 05:40:38;;;;;;;4.27;3.87;;;;;;;;;;5029042;28;20681;-77
2022/10/08 05:43:05;;;;;;;5.17;4.30;;;;;;;;;;5029805;28;20222;-77
2022/10/08 05:45:31;;;;;;;4.07;3.77;;;;;;;;;;5029647;28;20210;-77
2022/10/08 05:47:58;;;;;;;3.47;3.17;;;;;;;;;;5044674;28;20202;-77
2022/10/08 05:50:25;;;;;;;4.17;3.17;;;;;;;;;;5049796;28;20263;-77
2022/10/08 05:52:53;;;;;;;4.43;4.03;;;;;;;;;;5049944;28;20691;-77
2022/10/08 05:55:20;;;;;;;5.10;3.90;;;;;;;;;;5049973;28;20205;-77
2022/10/08 05:57:46;;;;;;;3.87;3.47;;;;;;;;;;5052076;28;20209;-77
2022/10/08 06:00:14;;;;;;;5.37;3.63;;;;;;;;;;5053700;28;20690;-82
2022/10/08 06:02:41;;;;;;;5.33;4.20;;;;;;;;;;5054449;28;20209;-79
2022/10/08 06:05:08;;;;;;;4.97;4.47;;;;;;;;;;5054251;28;20243;-79
2022/10/08 06:07:35;;;;;;;5.43;4.17;;;;;;;;;;5053517;28;20684;-79
2022/10/08 06:10:03;;;;;;;11.07;4.80;;;;;;;;;;5053489;28;20212;-80
2022/10/08 06:12:30;;;;;;;4.37;3.97;;;;;;;;;;5053813;28;20202;-79
2022/10/08 06:14:57;;;;;;;3.80;3.50;;;;;;;;;;5053614;28;20209;-79
2022/10/08 06:17:24;;;;;;;4.00;2.70;;;;;;;;;;5054000;28;20263;-80
2022/10/08 06:19:50;;;;;;;4.83;3.47;;;;;;;;;;5053627;28;20205;-79
2022/10/08 06:22:17;;;;;;;5.90;2.87;;;;;;;;;;5053930;28;20209;-80
2022/10/08 06:24:44;;;;;;;10.40;3.77;;;;;;;;;;5052714;28;20225;-80
2022/10/08 06:27:12;;;;;;;4.03;2.90;;;;;;;;;;5053605;28;20734;-79
2022/10/08 06:29:39;;;;;;;3.40;3.10;;;;;;;;;;5053786;28;20206;-80
2022/10/08 06:32:06;;;;;;;2.80;2.57;;;;;;;;;;5053444;28;20760;-79
2022/10/08 06:34:32;;;;;;;3.40;3.10;;;;;;;;;;5053414;28;20202;-80
2022/10/08 06:36:59;;;;;;;3.00;2.70;;;;;;;;;;5053580;28;20263;-79
2022/10/08 06:39:26;;;;;;;5.97;2.63;;;;;;;;;;5053159;28;20574;-79
2022/10/08 06:41:52;;;;;;;2.53;2.33;;;;;;;;;;5053641;28;20203;-79
2022/10/08 06:44:21;;;;;;;3.47;3.17;;;;;;;;;;5052917;28;20225;-80
2022/10/08 06:46:47;;;;;;;3.37;2.97;;;;;;;;;;5052594;28;20207;-80
2022/10/08 06:49:14;;;;;;;2.67;2.47;;;;;;;;;;5052613;28;20268;-79
2022/10/08 06:51:41;;;;;;;5.67;2.80;;;;;;;;;;5052063;28;20194;-80
2022/10/08 06:54:08;;;;;;;3.47;3.07;;;;;;;;;;5052231;28;20259;-79
2022/10/08 06:56:34;;;;;;;4.53;2.80;;;;;;;;;;5051904;28;20626;-80
2022/10/08 06:59:01;;;;;;;3.23;2.93;;;;;;;;;;5052292;28;20204;-79
2022/10/08 07:01:29;;;;;;;3.13;2.83;;;;;;;;;;5053211;28;20238;-79
2022/10/08 07:04:05;;;;;;;5.10;3.00;;;;;;;;;;5053017;28;20604;-80
2022/10/08 07:06:32;;;;;;;5.73;3.20;;;;;;;;;;5050532;28;20294;-79
2022/10/08 07:09:01;;;;;;;4.93;2.67;;;;;;;;;;5038101;28;20205;-79
2022/10/08 07:11:30;;;;;;;3.00;2.77;;;;;;;;;;5052871;28;20208;-80
2022/10/08 07:13:57;;;;;;;4.27;2.67;;;;;;;;;;5052922;28;20287;-79
2022/10/08 07:16:26;;;;;;;2.97;2.73;;;;;;;;;;5053420;28;20213;-80
2022/10/08 07:18:57;;;;;;;4.83;2.70;;;;;;;;;;5052429;28;20703;-79
2022/10/08 07:21:23;;;;;;;2.83;2.63;;;;;;;;;;5052926;28;20687;-79
2022/10/08 07:23:52;;;;;;;4.47;3.30;;;;;;;;;;5052354;28;20722;-80
2022/10/08 07:26:21;;;;;;;3.00;2.70;;;;;;;;;;5052876;28;20208;-80
2022/10/08 07:28:50;;;;;;;3.20;3.00;;;;;;;;;;5052901;28;20796;-78
2022/10/08 07:31:18;;;;;;;4.33;2.73;;;;;;;;;;5052343;28;20556;-79
2022/10/08 07:33:45;;;;;;;3.37;2.83;;;;;;;;;;5052853;28;20730;-79
2022/10/08 07:36:14;;;;;;;4.47;3.40;;;;;;;;;;5051944;28;20205;-79
2022/10/08 07:38:42;;;;;;;3.30;3.00;;;;;;;;;;5047092;28;20211;-77
2022/10/08 07:41:09;;;;;;;3.47;3.17;;;;;;;;;;5049777;28;20310;-77
2022/10/08 07:43:39;;;;;;;4.27;3.17;;;;;;;;;;5051437;28;20204;-77
2022/10/08 07:46:07;;;;;;;3.60;3.10;;;;;;;;;;5051325;28;20292;-77
2022/10/08 07:48:34;;;;;;;6.87;3.50;;;;;;;;;;5051985;28;20198;-78
2022/10/08 07:51:09;;;;;;;3.77;3.23;;;;;;;;;;5051754;28;20210;-77
2022/10/08 07:53:38;;;;;;;4.47;3.47;;;;;;;;;;5051917;28;20205;-77
2022/10/08 07:56:05;;;;;;;3.10;2.87;;;;;;;;;;5051242;28;20205;-77
2022/10/08 07:58:31;;;;;;;4.97;3.60;;;;;;;;;;5051841;28;20198;-77
2022/10/08 08:00:58;;;;;;;4.07;3.60;;;;;;;;;;5051283;28;20210;-77
2022/10/08 08:03:25;;;;;;;3.23;2.80;;;;;;;;;;5052029;28;20198;-80
2022/10/08 08:05:53;;;;;;;3.13;2.90;;;;;;;;;;5051500;28;20204;-80
2022/10/08 08:08:22;;;;;;;2.90;2.70;;;;;;;;;;5051235;28;20226;-80
2022/10/08 08:10:56;;;;;;;4.47;3.20;;;;;;;;;;5051514;28;20205;-79
2022/10/08 08:13:22;;;;;;;6.27;2.67;;;;;;;;;;5051712;28;20210;-79
2022/10/08 08:15:56;;;;;;;3.33;2.87;;;;;;;;;;5051630;28;20198;-79
2022/10/08 08:18:23;;;;;;;5.47;4.30;;;;;;;;;;5051502;28;20209;-80
2022/10/08 08:20:49;;;;;;;3.17;2.67;;;;;;;;;;5050903;28;20213;-77
2022/10/08 08:23:16;;;;;;;3.33;3.03;;;;;;;;;;5051760;28;20210;-76
2022/10/08 08:25:43;;;;;;;2.80;2.60;;;;;;;;;;5050803;28;20236;-79
2022/10/08 08:28:12;;;;;;;3.40;3.10;;;;;;;;;;5051247;28;20234;-79
2022/10/08 08:30:38;;;;;;;2.90;2.70;;;;;;;;;;5051257;28;20204;-79
2022/10/08 08:33:05;;;;;;;3.43;3.10;;;;;;;;;;5050875;28;20214;-79
2022/10/08 08:35:32;;;;;;;3.30;2.53;;;;;;;;;;5049771;28;20595;-79
2022/10/08 08:37:58;;;;;;;2.77;2.57;;;;;;;;;;5050405;28;20673;-79
2022/10/08 08:40:27;;;;;;;3.60;2.80;;;;;;;;;;5051208;28;20206;-79
2022/10/08 08:42:55;;;;;;;5.20;3.10;;;;;;;;;;5051233;28;20202;-79
2022/10/08 08:45:26;;;;;;;4.33;2.57;;;;;;;;;;5050735;28;20229;-79
2022/10/08 08:48:01;;;;;;;4.33;2.93;;;;;;;;;;5051127;28;20198;-79
2022/10/08 08:50:30;;;;;;;4.00;2.50;;;;;;;;;;5051100;28;20256;-79
2022/10/08 08:52:57;;;;;;;2.50;2.30;;;;;;;;;;5051035;28;20210;-79
2022/10/08 08:55:33;;;;;;;2.63;2.43;;;;;;;;;;5051036;28;20194;-79
2022/10/08 08:58:07;;;;;;;5.93;2.90;;;;;;;;;;5051013;28;20208;-79
2022/10/08 09:00:40;;;;;;;3.23;2.50;;;;;;;;;;5051134;28;20193;-78
2022/10/08 09:03:13;;;;;;;2.93;2.63;;;;;;;;;;5050664;28;20574;-78
2022/10/08 09:05:42;;;;;;;3.93;2.37;;;;;;;;;;5051088;28;20311;-78
2022/10/08 09:08:16;;;;;;;2.50;2.30;;;;;;;;;;5050855;28;20707;-78
2022/10/08 09:10:47;;;;;;;3.30;2.67;;;;;;;;;;5037418;28;20236;-78
2022/10/08 09:13:18;;;;;;;3.43;2.70;;;;;;;;;;5051162;28;20209;-78
2022/10/08 09:15:46;;;;;;;2.40;2.20;;;;;;;;;;5050374;28;20194;-78
2022/10/08 09:18:15;;;;;;;2.93;2.60;;;;;;;;;;5050974;28;20289;-78
2022/10/08 09:20:42;;;;;;;4.37;2.90;;;;;;;;;;5050570;28;20673;-79
2022/10/08 09:23:13;;;;;;;2.60;2.40;;;;;;;;;;5050778;28;20228;-78
2022/10/08 09:25:41;;;;;;;5.90;3.43;;;;;;;;;;5050186;28;20708;-78
2022/10/08 09:28:07;;;;;;;4.07;2.50;;;;;;;;;;5050712;28;20234;-79
2022/10/08 09:30:36;;;;;;;3.07;2.50;;;;;;;;;;5050714;28;20204;-78
2022/10/08 09:33:15;;;;;;;2.97;2.33;;;;;;;;;;5050077;28;20585;-79
2022/10/08 09:35:44;;;;;;;4.13;2.50;;;;;;;;;;5050163;28;20252;-79
2022/10/08 09:38:20;;;;;;;4.60;3.00;;;;;;;;;;5050769;28;20198;-79
2022/10/08 09:40:59;;;;;;;5.17;2.47;;;;;;;;;;5050102;28;20641;-79
2022/10/08 09:43:26;;;;;;;2.70;2.50;;;;;;;;;;5050460;28;20575;-79
2022/10/08 09:45:53;;;;;;;2.83;2.57;;;;;;;;;;5050361;28;20311;-76
2022/10/08 09:48:24;;;;;;;5.43;2.60;;;;;;;;;;5050415;28;20232;-76
2022/10/08 09:50:54;;;;;;;3.37;2.57;;;;;;;;;;5050432;28;20597;-77
2022/10/08 09:53:21;;;;;;;5.93;2.87;;;;;;;;;;5050204;28;20201;-76
2022/10/08 09:55:54;;;;;;;2.93;2.60;;;;;;;;;;5049955;28;20244;-76
2022/10/08 09:58:21;;;;;;;2.50;2.40;;;;;;;;;;5050844;28;20206;-79
2022/10/08 10:00:57;;;;;;;2.40;1.97;;;;;;;;;;5050010;28;20201;-78
2022/10/08 10:03:26;;;;;;;2.70;2.50;;;;;;;;;;5050166;28;20205;-78
2022/10/08 10:05:54;;;;;;;3.10;2.67;;;;;;;;;;5050135;28;20316;-79
2022/10/08 10:08:45;;;;;;;2.23;2.03;;;;;;;;;;5049768;28;20197;-79
2022/10/08 10:11:14;;;;;;;4.90;2.13;;;;;;;;;;5049342;28;20754;-79
2022/10/08 10:13:41;;;;;;;3.50;2.30;;;;;;;;;;5049080;28;20201;-79
2022/10/08 10:16:13;;;;;;;2.60;2.37;;;;;;;;;;5048874;28;20198;-79
2022/10/08 10:18:48;;;;;;;2.30;2.10;;;;;;;;;;5049291;28;20209;-79
2022/10/08 10:21:19;;;;;;;4.70;2.00;;;;;;;;;;5049353;28;20206;-79
2022/10/08 10:23:49;;;;;;;2.50;2.30;;;;;;;;;;5050128;28;20738;-78
2022/10/08 10:26:20;;;;;;;2.20;2.00;;;;;;;;;;5049958;28;20704;-78
2022/10/08 10:28:50;;;;;;;2.13;2.00;;;;;;;;;;5050326;28;20225;-79
2022/10/08 10:31:19;;;;;;;2.83;2.53;;;;;;;;;;5050278;28;20202;-78
2022/10/08 10:33:51;;;;;;;2.97;2.10;;;;;;;;;;5049813;28;20214;-78
2022/10/08 10:36:19;;;;;;;2.20;2.10;;;;;;;;;;5049855;28;20292;-79
2022/10/08 10:38:51;;;;;;;2.47;2.27;;;;;;;;;;5049890;28;20206;-78
2022/10/08 10:41:22;;;;;;;2.00;1.80;;;;;;;;;;5036448;28;20205;-79
2022/10/08 10:43:51;;;;;;;2.13;1.93;;;;;;;;;;5052212;28;20287;-79
2022/10/08 10:46:28;;;;;;;5.03;2.10;;;;;;;;;;5053626;28;20299;-79
2022/10/08 10:48:57;;;;;;;2.17;2.07;;;;;;;;;;5053626;28;20209;-78
2022/10/08 10:51:40;;;;;;;1.77;1.67;;;;;;;;;;5053381;28;20201;-79
2022/10/08 10:54:22;;;;;;;3.00;1.80;;;;;;;;;;5053736;28;20212;-78
2022/10/08 10:56:54;;;;;;;3.40;2.20;;;;;;;;;;5053594;28;20206;-77
2022/10/08 10:59:33;;;;;;;2.17;1.80;;;;;;;;;;5053349;28;20217;-79
2022/10/08 11:02:06;;;;;;;1.90;1.80;;;;;;;;;;5053246;28;20202;-80
2022/10/08 11:04:42;;;;;;;1.83;1.47;;;;;;;;;;5053230;28;20201;-79
2022/10/08 11:07:22;;;;;;;3.53;2.03;;;;;;;;;;5053563;28;20197;-79
2022/10/08 11:09:52;;;;;;;1.93;1.83;;;;;;;;;;5053082;28;20645;-79
2022/10/08 11:12:28;;;;;;;1.83;1.73;;;;;;;;;;5053146;28;20201;-80
2022/10/08 11:15:01;;;;;;;4.10;2.43;;;;;;;;;;5053021;28;20259;-78
2022/10/08 11:17:40;;;;;;;2.10;1.90;;;;;;;;;;5053327;28;20631;-78
2022/10/08 11:20:24;;;;;;;4.97;1.60;;;;;;;;;;5052745;28;20209;-79
2022/10/08 11:22:54;;;;;;;3.07;2.40;;;;;;;;;;5052556;28;20201;-78
2022/10/08 11:25:27;;;;;;;2.00;1.80;;;;;;;;;;5052484;28;20221;-79
2022/10/08 11:28:03;;;;;;;2.63;2.40;;;;;;;;;;5053345;28;20233;-78
2022/10/08 11:30:36;;;;;;;2.83;2.23;;;;;;;;;;5052876;28;20201;-79
2022/10/08 11:33:04;;;;;;;2.03;1.93;;;;;;;;;;5052767;28;20206;-79
2022/10/08 11:35:38;;;;;;;2.07;1.60;;;;;;;;;;5052679;28;20218;-77
2022/10/08 11:38:09;;;;;;;2.20;2.00;;;;;;;;;;5052943;28;20285;-79
2022/10/08 11:40:39;;;;;;;2.03;1.90;;;;;;;;;;5052607;28;20711;-79
2022/10/08 11:43:08;;;;;;;2.60;2.37;;;;;;;;;;5052688;28;20202;-79
2022/10/08 11:45:38;;;;;;;2.10;1.70;;;;;;;;;;5052480;28;20236;-79
2022/10/08 11:48:29;;;;;;;2.27;1.97;;;;;;;;;;5049067;28;20206;-78
2022/10/08 11:54:03;;;;;;;2.27;2.07;;;;;;;;;;5081405;27;20569;-79
2022/10/08 11:56:31;;;;;;;2.37;2.10;;;;;;;;;;5067784;28;20212;-81
2022/10/08 11:58:59;;;;;;;4.60;1.90;;;;;;;;;;5068206;28;20202;-81
2022/10/08 12:01:26;;;;;;;2.80;1.90;;;;;;;;;;5067601;28;20193;-79
2022/10/08 12:04:01;;;;;;;3.03;2.20;;;;;;;;;;5048712;28;20202;-78
2022/10/08 12:06:29;;;;;;;1.93;1.83;;;;;;;;;;5065205;28;20637;-78
2022/10/08 12:08:59;;;;;;;2.50;2.30;;;;;;;;;;5067395;28;20251;-79
2022/10/08 12:11:48;;;;;;;4.47;2.10;;;;;;;;;;5067320;28;20202;-78
2022/10/08 12:14:47;;;;;;;5.80;2.10;;;;;;;;;;5067187;28;20660;-79
2022/10/08 12:17:14;;;;;;;4.20;2.10;;;;;;;;;;5067661;28;20284;-79
2022/10/08 12:20:06;;;;;;;2.13;1.93;;;;;;;;;;5065870;28;20208;-81
2022/10/08 12:22:43;;;;;;;5.87;2.43;;;;;;;;;;5066407;28;20706;-79
2022/10/08 12:25:35;;;;;;;3.47;1.97;;;;;;;;;;5067051;28;20201;-79
2022/10/08 12:28:51;;;;;;;1.60;1.53;;;;;;;;;;5067688;28;20212;-78
2022/10/08 12:31:28;;;;;;;2.87;2.27;;;;;;;;;;5060449;28;20692;-79
2022/10/08 12:33:57;;;;;;;12.20;2.43;;;;;;;;;;5046930;28;20236;-79
2022/10/08 12:36:31;;;;;;;2.20;2.00;;;;;;;;;;5046878;28;20206;-81
2022/10/08 12:39:01;;;;;;;2.37;2.10;;;;;;;;;;5046736;28;20206;-81
2022/10/08 12:41:33;;;;;;;2.07;1.87;;;;;;;;;;5051511;28;20628;-84
2022/10/08 12:44:03;;;;;;;1.70;1.60;;;;;;;;;;5066808;28;20225;-78
2022/10/08 12:46:38;;;;;;;1.80;1.70;;;;;;;;;;5067100;28;20201;-79
2022/10/08 12:49:12;;;;;;;3.43;1.73;;;;;;;;;;5066684;28;20211;-79
2022/10/08 12:51:44;;;;;;;1.57;1.47;;;;;;;;;;5066937;28;20205;-77
2022/10/08 12:54:17;;;;;;;53.43;12.17;;;;;;;;;;5066628;28;20259;-81
2022/10/08 12:56:46;;;;;;;3.43;1.70;;;;;;;;;;5066504;28;20213;-81
2022/10/08 12:59:13;;;;;;;1.77;1.67;;;;;;;;;;5066595;28;20248;-80
2022/10/08 13:01:43;;;;;;;3.07;1.97;;;;;;;;;;5066833;28;20207;-79
2022/10/08 13:04:17;;;;;;;5.13;2.33;;;;;;;;;;5058956;28;20209;-80
2022/10/08 13:06:44;;;;;;;2.03;1.93;;;;;;;;;;5053240;28;20233;-79
2022/10/08 13:09:25;;;;;;;1.90;1.80;;;;;;;;;;5053178;28;20268;-80
2022/10/08 13:11:54;;;;;;;2.17;1.90;;;;;;;;;;5053252;28;21105;-81
2022/10/08 13:14:28;;;;;;;2.83;1.93;;;;;;;;;;5053463;28;20256;-80
2022/10/08 13:16:55;;;;;;;2.07;1.97;;;;;;;;;;5052811;28;20641;-81
2022/10/08 13:19:29;;;;;;;2.03;1.80;;;;;;;;;;5037305;28;20210;-80
2022/10/08 13:21:57;;;;;;;2.47;2.27;;;;;;;;;;5035770;28;20241;-79
2022/10/08 13:24:30;;;;;;;2.60;1.57;;;;;;;;;;5053263;28;20942;-79
2022/10/08 13:26:58;;;;;;;2.33;2.13;;;;;;;;;;5053058;28;20652;-79
2022/10/08 13:29:31;;;;;;;6.20;2.17;;;;;;;;;;5052964;28;20202;-82
2022/10/08 13:32:00;;;;;;;2.23;2.03;;;;;;;;;;5052909;28;20229;-83
2022/10/08 13:34:30;;;;;;;2.47;1.70;;;;;;;;;;5053099;28;20894;-83
2022/10/08 13:37:02;;;;;;;1.87;1.77;;;;;;;;;;5052581;28;20206;-81
2022/10/08 13:39:30;;;;;;;2.10;2.00;;;;;;;;;;5052919;28;20201;-81
2022/10/08 13:42:00;;;;;;;1.93;1.83;;;;;;;;;;5052938;28;20679;-81
2022/10/08 13:44:28;;;;;;;2.03;1.93;;;;;;;;;;5052953;28;20259;-81
2022/10/08 13:46:55;;;;;;;2.50;1.73;;;;;;;;;;5052748;28;20610;-81
2022/10/08 13:49:23;;;;;;;2.33;2.13;;;;;;;;;;5052169;28;20595;-81
2022/10/08 13:51:50;;;;;;;2.23;2.13;;;;;;;;;;5052563;28;20256;-80
2022/10/08 13:54:21;;;;;;;1.97;1.83;;;;;;;;;;5052411;28;20202;-82
2022/10/08 13:56:49;;;;;;;4.00;2.07;;;;;;;;;;5049798;28;20297;-76
2022/10/08 13:59:18;;;;;;;3.30;2.07;;;;;;;;;;5051212;28;20282;-75
2022/10/08 14:01:45;;;;;;;2.43;2.23;;;;;;;;;;5052120;28;20210;-76
2022/10/08 14:04:12;;;;;;;4.43;2.10;;;;;;;;;;5051832;28;20225;-77
2022/10/08 14:06:40;;;;;;;2.60;2.40;;;;;;;;;;5051735;28;20680;-77
2022/10/08 14:09:08;;;;;;;2.33;1.90;;;;;;;;;;5051752;28;20232;-77
2022/10/08 14:11:36;;;;;;;2.00;1.90;;;;;;;;;;5051523;28;20232;-77
2022/10/08 14:14:03;;;;;;;2.23;1.83;;;;;;;;;;5051515;28;20206;-77
2022/10/08 14:16:31;;;;;;;1.90;1.80;;;;;;;;;;5050969;28;20209;-77
2022/10/08 14:18:58;;;;;;;1.83;1.70;;;;;;;;;;5051525;28;20684;-77
2022/10/08 14:21:24;;;;;;;1.80;1.70;;;;;;;;;;5037380;28;20726;-77
2022/10/08 14:23:51;;;;;;;2.77;2.00;;;;;;;;;;5051415;28;20232;-77
2022/10/08 14:26:18;;;;;;;3.67;2.20;;;;;;;;;;5050947;28;20206;-77
2022/10/08 14:28:45;;;;;;;1.87;1.77;;;;;;;;;;5051571;28;20205;-77
2022/10/08 14:31:14;;;;;;;3.93;1.93;;;;;;;;;;5051194;28;20568;-77
2022/10/08 14:33:42;;;;;;;2.00;1.90;;;;;;;;;;5051569;28;20750;-77
2022/10/08 14:36:14;;;;;;;4.37;2.30;;;;;;;;;;5051168;28;20224;-76
2022/10/08 14:38:41;;;;;;;3.37;2.07;;;;;;;;;;5051285;28;20198;-77
2022/10/08 14:41:08;;;;;;;2.30;2.20;;;;;;;;;;5051337;28;20563;-77
2022/10/08 14:43:35;;;;;;;6.77;2.30;;;;;;;;;;5051791;28;20222;-76
2022/10/08 14:46:02;;;;;;;5.77;2.50;;;;;;;;;;5051324;28;20259;-77
2022/10/08 14:48:28;;;;;;;2.47;2.27;;;;;;;;;;5051429;28;20194;-76
2022/10/08 14:50:57;;;;;;;3.10;1.90;;;;;;;;;;5051306;28;20263;-76
2022/10/08 14:53:24;;;;;;;3.80;2.30;;;;;;;;;;5050953;28;20613;-77
2022/10/08 14:55:51;;;;;;;1.97;1.87;;;;;;;;;;5051182;28;20209;-77
2022/10/08 14:58:18;;;;;;;2.53;2.33;;;;;;;;;;5050765;28;20684;-77
2022/10/08 15:00:45;;;;;;;2.73;2.53;;;;;;;;;;5050941;28;20263;-76